Clipper Imabari — 3ERD7 — position and weather

sailwx.info

Track history (hours):
 
Tides and Currents Weather Stations Pressure Air Temp Water Temp Dewpoint Dewpoint Depression Visibility Wind Speed Wind Dir Waves Ship Positions

Clipper Imabari

Last reported at 2017-Sep-09 04:37 UTC. Time now 2017-Sep-22 10:17 UTC.
Position N 29°35' W 120°08'.
Warning: this ship's position is 13 days out of date.

Length 169 m; draft 9.1 m.

Type: Cargo ship. MMSI: 370016000.

Date/timePositionNaut miles runAvg speedWind from/ knotsBaromVisibWave heightAir tempDewpointWater temp
2017-Sep-09 04:37N 29°35' W 120°08'711.6
2017-Sep-09 04:02N 29°31' W 120°02'011.5
2017-Sep-09 04:00N 29°31' W 120°01'711.4
2017-Sep-09 03:22N 29°26' W 119°55'411.5
2017-Sep-09 03:00N 29°24' W 119°51'611.7
2017-Sep-09 02:30N 29°20' W 119°46'611.7
2017-Sep-09 02:00N 29°16' W 119°41'612.0
2017-Sep-09 01:29N 29°12' W 119°35'611.9
2017-Sep-09 01:00N 29°08' W 119°30'611.6
2017-Sep-09 00:30N 29°04' W 119°25'611.7
2017-Sep-09 00:00N 29°01' W 119°20'611.6
2017-Sep-08 23:29N 28°57' W 119°15'611.7
2017-Sep-08 23:00N 28°53' W 119°10'611.6
2017-Sep-08 22:30N 28°49' W 119°05'611.6
2017-Sep-08 22:00N 28°46' W 119°00'811.8
2017-Sep-08 21:21N 28°41' W 118°53'411.7
2017-Sep-08 21:00N 28°38' W 118°50'611.8
2017-Sep-08 20:30N 28°34' W 118°45'611.9
2017-Sep-08 20:00N 28°30' W 118°40'611.9
2017-Sep-08 19:29N 28°26' W 118°34'1212.1
2017-Sep-08 18:30N 28°18' W 118°24'612.2
2017-Sep-08 18:00N 28°15' W 118°19'1612.0
2017-Sep-08 16:41N 28°04' W 118°05'611.8
2017-Sep-08 16:09N 28°00' W 117°59'3111.8
2017-Sep-08 13:32N 27°40' W 117°33'012.4
2017-Sep-08 13:30N 27°40' W 117°32'1612.0
2017-Sep-08 12:09N 27°30' W 117°19'211.5
2017-Sep-08 12:00N 27°28' W 117°17'611.7
2017-Sep-08 11:30N 27°25' W 117°12'  
Track history (hours):
 
Tides and Currents Weather Stations Pressure Air Temp Water Temp Dewpoint Dewpoint Depression Visibility Wind Speed Wind Dir Waves Ship Positions

Clipper Imabari

Last reported at 2017-Sep-09 04:37 UTC. Time now 2017-Sep-22 10:17 UTC.
Position N 29°35' W 120°08'.
Warning: this ship's position is 13 days out of date.

Length 169 m; draft 9.1 m.

Type: Cargo ship. MMSI: 370016000.

Date/timePositionNaut miles runAvg speedWind from/ knotsBaromVisibWave heightAir tempDewpointWater temp
2017-Sep-09 04:37N 29°35' W 120°08'711.6
2017-Sep-09 04:02N 29°31' W 120°02'011.5
2017-Sep-09 04:00N 29°31' W 120°01'711.4
2017-Sep-09 03:22N 29°26' W 119°55'411.5
2017-Sep-09 03:00N 29°24' W 119°51'611.7
2017-Sep-09 02:30N 29°20' W 119°46'611.7
2017-Sep-09 02:00N 29°16' W 119°41'612.0
2017-Sep-09 01:29N 29°12' W 119°35'611.9
2017-Sep-09 01:00N 29°08' W 119°30'611.6
2017-Sep-09 00:30N 29°04' W 119°25'611.7
2017-Sep-09 00:00N 29°01' W 119°20'611.6
2017-Sep-08 23:29N 28°57' W 119°15'611.7
2017-Sep-08 23:00N 28°53' W 119°10'611.6
2017-Sep-08 22:30N 28°49' W 119°05'611.6
2017-Sep-08 22:00N 28°46' W 119°00'811.8
2017-Sep-08 21:21N 28°41' W 118°53'411.7
2017-Sep-08 21:00N 28°38' W 118°50'611.8
2017-Sep-08 20:30N 28°34' W 118°45'611.9
2017-Sep-08 20:00N 28°30' W 118°40'611.9
2017-Sep-08 19:29N 28°26' W 118°34'1212.1
2017-Sep-08 18:30N 28°18' W 118°24'612.2
2017-Sep-08 18:00N 28°15' W 118°19'1612.0
2017-Sep-08 16:41N 28°04' W 118°05'611.8
2017-Sep-08 16:09N 28°00' W 117°59'3111.8
2017-Sep-08 13:32N 27°40' W 117°33'012.4
2017-Sep-08 13:30N 27°40' W 117°32'1612.0
2017-Sep-08 12:09N 27°30' W 117°19'211.5
2017-Sep-08 12:00N 27°28' W 117°17'611.7
2017-Sep-08 11:30N 27°25' W 117°12'  

Dump ship's entire track history